Time;durP1;ratioP1;P1;durP2;ratioP2;P2;SDS_P1;SDS_P2;PMS_P1;PMS_P2;Temp;Humidity;BMP_temperature;BMP_pressure;BME280_temperature;BME280_humidity;BME280_pressure;Samples;Min_cycle;Max_cycle;Signal;HPM_P1;HPM_P2
2022/09/25 00:00:17;;;;;;;;;;;;;;;9.97;67.65;100209.56;110280;1266;21972;-80
2022/09/25 00:07:44;;;;;;;83.30;66.00;;;;;;;9.73;68.00;100207.30;110459;1260;21951;-81
2022/09/25 00:10:13;;;;;;;80.20;63.70;;;;;;;9.75;68.01;100206.53;109684;1266;22414;-82
2022/09/25 00:13:03;;;;;;;76.00;61.00;;;;;;;9.78;67.98;100207.30;109694;1270;23024;-81
2022/09/25 00:15:54;;;;;;;74.20;60.10;;;;;;;9.79;67.96;100207.42;109392;1270;21992;-82
2022/09/25 00:21:29;;;;;;;75.80;63.40;;;;;;;9.70;67.75;100202.04;109199;1272;23704;-81
2022/09/25 00:24:12;;;;;;;80.70;68.00;;;;;;;9.65;67.70;100201.88;108883;1273;21725;-81
2022/09/25 00:27:00;;;;;;;83.50;70.70;;;;;;;9.56;67.74;100205.48;109522;1270;22019;-81
2022/09/25 00:29:38;;;;;;;74.50;63.00;;;;;;;9.50;67.83;100206.40;109218;1270;21989;-82
2022/09/25 00:32:11;;;;;;;80.90;66.30;;;;;;;9.47;68.08;100208.76;108690;1270;21990;-81
2022/09/25 00:34:57;;;;;;;76.40;64.80;;;;;;;9.47;68.36;100208.07;108767;1270;21997;-81
2022/09/25 00:37:29;;;;;;;72.40;63.20;;;;;;;9.48;68.39;100200.93;108852;1273;21986;-81
2022/09/25 00:40:01;;;;;;;76.90;62.90;;;;;;;9.47;68.35;100199.38;108901;1270;21985;-81
2022/09/25 00:42:32;;;;;;;69.80;57.60;;;;;;;9.47;68.41;100201.30;108618;1276;22011;-81
2022/09/25 00:45:16;;;;;;;65.50;56.80;;;;;;;9.46;68.57;100199.41;108609;1276;22966;-81
2022/09/25 00:48:05;;;;;;;68.50;59.10;;;;;;;9.45;68.59;100198.26;108536;1276;22836;-81
2022/09/25 00:51:00;;;;;;;67.00;58.80;;;;;;;9.44;68.62;100192.71;108295;1276;22000;-81
2022/09/25 00:53:39;;;;;;;72.40;60.50;;;;;;;9.40;68.61;100186.80;108525;1276;22047;-80
2022/09/25 00:56:14;;;;;;;75.10;64.00;;;;;;;9.35;68.41;100183.46;108474;1276;23091;-81
2022/09/25 00:58:46;;;;;;;75.60;60.70;;;;;;;9.34;68.52;100185.23;108600;1276;22406;-81
2022/09/25 01:01:18;;;;;;;65.20;57.50;;;;;;;9.29;68.51;100187.18;108401;1276;23157;-81
2022/09/25 01:03:54;;;;;;;69.10;59.10;;;;;;;9.25;68.20;100184.86;108478;1279;23699;-81
2022/09/25 01:06:30;;;;;;;68.60;57.80;;;;;;;9.20;68.20;100185.73;108364;1279;21996;-81
2022/09/25 01:09:03;;;;;;;68.70;55.20;;;;;;;9.16;68.08;100188.65;108447;1279;23062;-81
2022/09/25 01:11:37;;;;;;;;;;;;;;;9.13;68.29;100189.78;108579;1276;23592;-81
2022/09/25 01:14:08;;;;;;;57.70;49.00;;;;;;;9.00;68.56;100188.85;108525;1276;22434;-81
2022/09/25 01:17:07;;;;;;;63.20;54.70;;;;;;;8.97;68.40;100184.62;108303;1279;21991;-80
2022/09/25 01:19:51;;;;;;;62.30;53.00;;;;;;;8.94;68.53;100184.88;108771;1270;23705;-80
2022/09/25 01:22:40;;;;;;;60.50;50.90;;;;;;;8.92;68.59;100187.04;108754;1272;23753;-80
2022/09/25 01:26:13;;;;;;;56.70;50.20;;;;;;;8.88;68.52;100187.16;109118;1270;22004;-80
2022/09/25 01:29:00;;;;;;;59.50;51.10;;;;;;;8.81;68.66;100184.45;108523;1278;24480;-81
2022/09/25 01:32:19;;;;;;;56.10;49.90;;;;;;;8.78;68.58;100181.42;108262;1282;22672;-83
2022/09/25 01:35:09;;;;;;;55.50;49.50;;;;;;;8.73;68.65;100182.80;107941;1284;22027;-82
2022/09/25 01:37:54;;;;;;;61.50;53.10;;;;;;;8.70;68.53;100185.50;108008;1283;23864;-81
2022/09/25 01:40:46;;;;;;;60.20;53.70;;;;;;;8.69;68.63;100185.73;108130;1285;23616;-82
2022/09/25 01:43:35;;;;;;;57.10;50.90;;;;;;;8.65;68.69;100189.67;107974;1285;22173;-82
2022/09/25 01:46:22;;;;;;;57.30;51.40;;;;;;;8.61;68.57;100187.70;108086;1285;22059;-82
2022/09/25 01:49:06;;;;;;;59.00;52.50;;;;;;;8.57;68.87;100185.75;108031;1285;22022;-76
2022/09/25 01:51:49;;;;;;;56.00;50.30;;;;;;;8.54;68.87;100186.37;107576;1288;23180;-76
2022/09/25 01:54:39;;;;;;;54.80;48.60;;;;;;;8.48;68.77;100187.43;107740;1288;22039;-80
2022/09/25 01:57:26;;;;;;;56.70;48.50;;;;;;;8.43;68.95;100191.02;107878;1283;22014;-80
2022/09/25 02:00:07;;;;;;;54.00;47.10;;;;;;;8.34;68.90;100190.61;108224;1283;22039;-81
2022/09/25 02:02:47;;;;;;;54.20;46.90;;;;;;;8.26;68.99;100187.23;108195;1282;22449;-81
2022/09/25 02:05:34;;;;;;;52.90;46.80;;;;;;;8.17;69.20;100185.21;108294;1276;22824;-81
2022/09/25 02:08:43;;;;;;;51.80;46.20;;;;;;;8.11;69.42;100180.92;108149;1282;22308;-82
2022/09/25 02:11:19;;;;;;;51.90;46.30;;;;;;;8.12;69.89;100180.54;108357;1279;23040;-80
2022/09/25 02:14:00;;;;;;;49.20;43.80;;;;;;;8.15;69.86;100182.17;108240;1279;22492;-81
2022/09/25 02:16:42;;;;;;;49.40;43.70;;;;;;;8.15;69.76;100177.67;108221;1282;23165;-81
2022/09/25 02:22:34;;;;;;;50.10;43.70;;;;;;;8.10;69.62;100167.77;107943;1282;22008;-80
2022/09/25 02:25:23;;;;;;;49.70;43.00;;;;;;;8.10;69.66;100172.64;107954;1285;23550;-81
2022/09/25 02:27:53;;;;;;;54.50;44.60;;;;;;;8.05;69.63;100171.90;107871;1285;22037;-81
2022/09/25 02:30:27;;;;;;;50.50;44.60;;;;;;;8.03;69.84;100171.27;107708;1285;23741;-81
2022/09/25 02:32:58;;;;;;;49.90;44.30;;;;;;;8.01;69.93;100168.55;107928;1282;22943;-80
2022/09/25 02:35:32;;;;;;;48.80;43.70;;;;;;;7.99;69.95;100161.16;108175;1285;23731;-81
2022/09/25 02:38:03;;;;;;;53.10;42.90;;;;;;;7.99;69.95;100158.20;108000;1282;22017;-82
2022/09/25 02:40:51;;;;;;;48.80;43.50;;;;;;;7.97;69.97;100157.58;107810;1285;22895;-80
2022/09/25 02:43:27;;;;;;;52.10;43.80;;;;;;;7.96;70.17;100160.05;107775;1285;22796;-80
2022/09/25 02:46:38;;;;;;;50.10;44.80;;;;;;;7.96;70.08;100161.94;107661;1289;23054;-81
2022/09/25 02:50:29;;;;;;;52.60;45.40;;;;;;;7.92;70.12;100165.71;107505;1291;22010;-81
2022/09/25 02:53:46;;;;;;;55.30;47.20;;;;;;;7.78;70.19;100161.63;106746;1297;22041;-82
2022/09/25 02:56:44;;;;;;;61.30;51.60;;;;;;;7.76;70.39;100163.58;106734;1297;22315;-82
2022/09/25 02:59:38;;;;;;;60.90;53.60;;;;;;;7.73;70.31;100160.36;106907;1293;22064;-80
2022/09/25 03:02:12;;;;;;;60.10;52.60;;;;;;;7.73;70.42;100153.96;107235;1288;23635;-81
2022/09/25 03:04:48;;;;;;;65.20;53.30;;;;;;;7.73;70.58;100151.19;107721;1290;22002;-82
2022/09/25 03:07:23;;;;;;;57.50;51.30;;;;;;;7.76;70.65;100151.29;107543;1289;22023;-82
2022/09/25 03:10:00;;;;;;;59.80;50.60;;;;;;;7.79;70.46;100156.39;107783;1285;22964;-83
2022/09/25 03:12:35;;;;;;;57.00;50.80;;;;;;;7.77;70.50;100158.00;107958;1283;22004;-82
2022/09/25 03:15:09;;;;;;;56.70;50.70;;;;;;;7.79;70.65;100156.91;107128;1289;22026;-81
2022/09/25 03:17:49;;;;;;;58.90;52.00;;;;;;;7.81;70.63;100156.16;107124;1293;22012;-82
2022/09/25 03:20:28;;;;;;;62.40;52.40;;;;;;;7.81;70.56;100154.41;107132;1293;22027;-82
2022/09/25 03:23:00;;;;;;;55.50;49.50;;;;;;;7.82;70.47;100154.93;106772;1290;23963;-82
2022/09/25 03:25:34;;;;;;;54.60;48.70;;;;;;;7.81;70.47;100156.16;107366;1289;22126;-81
2022/09/25 03:28:20;;;;;;;58.30;50.50;;;;;;;7.79;70.34;100159.32;107259;1290;22026;-81
2022/09/25 03:31:09;;;;;;;55.30;48.60;;;;;;;7.79;70.51;100160.70;107877;1283;23612;-81
2022/09/25 03:33:55;;;;;;;58.70;49.40;;;;;;;7.76;70.45;100162.19;108248;1276;22020;-82
2022/09/25 03:36:30;;;;;;;55.20;47.80;;;;;;;7.75;70.36;100159.64;108494;1276;22012;-82
2022/09/25 03:39:05;;;;;;;60.10;49.40;;;;;;;7.73;70.53;100159.67;108248;1279;22779;-80
2022/09/25 03:41:40;;;;;;;56.30;50.10;;;;;;;7.72;70.47;100160.06;108618;1271;22288;-79
2022/09/25 03:44:10;;;;;;;57.50;48.80;;;;;;;7.69;70.19;100160.84;108680;1273;23625;-80
2022/09/25 03:46:41;;;;;;;53.20;46.90;;;;;;;7.65;70.29;100157.14;108831;1273;22070;-79
2022/09/25 03:49:17;;;;;;;59.40;50.20;;;;;;;7.62;70.30;100158.08;108748;1271;23703;-80
2022/09/25 03:51:52;;;;;;;62.60;51.30;;;;;;;7.61;70.29;100154.34;108986;1273;23670;-79
2022/09/25 03:54:29;;;;;;;56.10;49.70;;;;;;;7.58;70.32;100156.11;108916;1270;23604;-80
2022/09/25 03:57:02;;;;;;;56.30;50.20;;;;;;;7.56;70.35;100155.83;108756;1270;21987;-80
2022/09/25 03:59:42;;;;;;;56.00;49.20;;;;;;;7.54;70.33;100153.47;108914;1270;23139;-81
2022/09/25 04:02:13;;;;;;;57.60;50.20;;;;;;;7.53;70.30;100154.54;108727;1273;21987;-81
2022/09/25 04:04:46;;;;;;;56.70;48.90;;;;;;;7.53;70.43;100151.27;108662;1272;23063;-81
2022/09/25 04:07:15;;;;;;;56.90;48.40;;;;;;;7.53;70.61;100151.25;108914;1271;22000;-81
2022/09/25 04:09:47;;;;;;;58.90;49.20;;;;;;;7.53;70.66;100155.24;108762;1270;24119;-81
2022/09/25 04:12:18;;;;;;;59.00;49.30;;;;;;;7.52;70.61;100154.23;108929;1271;21986;-82
2022/09/25 04:14:49;;;;;;;60.20;50.40;;;;;;;7.52;70.66;100155.42;108878;1270;22004;-82
2022/09/25 04:17:28;;;;;;;59.10;51.40;;;;;;;7.51;70.57;100154.25;108766;1273;21987;-82
2022/09/25 04:20:01;;;;;;;58.90;52.40;;;;;;;7.46;70.43;100153.70;108947;1270;23887;-81
2022/09/25 04:22:32;;;;;;;57.20;49.30;;;;;;;7.42;70.53;100153.96;108808;1270;21984;-82
2022/09/25 04:25:09;;;;;;;57.10;49.70;;;;;;;7.41;70.59;100153.32;108943;1271;23124;-82
2022/09/25 04:27:45;;;;;;;59.50;50.30;;;;;;;7.39;70.53;100154.58;108732;1273;23052;-82
2022/09/25 04:30:28;;;;;;;56.30;49.60;;;;;;;7.35;70.54;100154.34;108805;1271;22075;-81
2022/09/25 04:36:05;;;;;;;61.30;52.20;;;;;;;7.25;70.57;100152.35;108768;1270;23056;-81
2022/09/25 04:38:40;;;;;;;59.70;50.20;;;;;;;7.21;70.62;100146.24;108951;1271;22964;-81
2022/09/25 04:41:18;;;;;;;61.20;51.30;;;;;;;7.21;70.75;100145.02;108560;1276;21995;-81
2022/09/25 04:43:53;;;;;;;70.20;50.70;;;;;;;7.25;70.74;100148.91;108369;1279;22017;-82
2022/09/25 04:46:38;;;;;;;59.60;49.00;;;;;;;7.26;70.82;100149.58;108551;1276;22095;-82
2022/09/25 04:49:09;;;;;;;57.50;49.70;;;;;;;7.27;70.75;100145.04;108311;1279;22107;-83
2022/09/25 04:51:41;;;;;;;67.70;52.40;;;;;;;7.29;70.93;100145.88;108419;1279;22442;-85
2022/09/25 04:54:14;;;;;;;61.80;51.10;;;;;;;7.26;70.61;100146.45;108390;1279;22003;-83
2022/09/25 04:56:57;;;;;;;57.50;48.20;;;;;;;7.22;70.69;100147.08;108428;1280;24405;-82
2022/09/25 04:59:32;;;;;;;57.90;49.30;;;;;;;7.19;70.56;100146.84;108880;1270;22781;-84
2022/09/25 05:02:53;;;;;;;62.40;52.40;;;;;;;7.18;70.76;100143.73;110095;1260;22035;31
2022/09/25 05:15:35;;;;;;;61.10;48.90;;;;;;;7.23;71.05;100143.23;104455;1269;954263;-83
2022/09/25 05:18:20;;;;;;;57.80;49.40;;;;;;;7.31;70.94;100144.59;108794;1270;21991;-85
2022/09/25 05:20:57;;;;;;;58.60;52.00;;;;;;;7.36;70.98;100144.42;108935;1270;22103;-83
2022/09/25 05:23:50;;;;;;;65.50;55.60;;;;;;;7.40;71.04;100142.61;108932;1270;22858;-82
2022/09/25 05:26:33;;;;;;;66.70;59.20;;;;;;;7.47;70.99;100147.08;109073;1270;22040;-83
2022/09/25 05:29:05;;;;;;;59.70;52.30;;;;;;;7.53;71.06;100146.39;108821;1270;21983;-80
2022/09/25 05:31:35;;;;;;;61.80;52.20;;;;;;;7.54;70.70;100147.42;109098;1270;21985;-80
2022/09/25 05:34:05;;;;;;;55.50;48.70;;;;;;;7.53;70.77;100149.33;109022;1270;21990;-81
2022/09/25 05:36:39;;;;;;;55.10;47.80;;;;;;;7.52;70.95;100149.73;108887;1270;22800;-80
2022/09/25 05:39:11;;;;;;;52.80;47.20;;;;;;;7.57;71.09;100155.62;109025;1271;23106;-81
2022/09/25 05:41:44;;;;;;;53.10;47.50;;;;;;;7.62;71.15;100157.74;109074;1271;21991;-84
2022/09/25 05:44:16;;;;;;;54.70;47.10;;;;;;;7.61;70.75;100155.33;108797;1271;22503;-82
2022/09/25 05:47:17;;;;;;;53.10;47.30;;;;;;;7.60;70.93;100155.04;108575;1276;21998;-87
2022/09/25 05:49:48;;;;;;;53.70;46.90;;;;;;;7.65;71.31;100159.22;108916;1276;22005;-81
2022/09/25 05:52:18;;;;;;;53.10;47.20;;;;;;;7.69;71.48;100161.34;108493;1276;22056;-82
2022/09/25 06:02:08;;;;;;;52.80;45.60;;;;;;;7.87;71.54;100157.89;110920;1260;21970;-84
2022/09/25 06:05:39;;;;;;;50.80;45.30;;;;;;;7.94;71.51;100153.54;110867;1259;22010;31
2022/09/25 06:18:49;;;;;;;49.90;44.50;;;;;;;8.49;71.58;100151.33;106794;1258;22057;-78
2022/09/25 06:21:20;;;;;;;47.40;42.40;;;;;;;8.66;71.52;100152.70;108929;1270;22000;-77
2022/09/25 06:23:51;;;;;;;47.40;42.40;;;;;;;8.82;71.43;100158.91;108925;1270;21979;-78
2022/09/25 06:26:25;;;;;;;46.90;41.00;;;;;;;8.94;71.17;100153.84;109419;1270;23738;-86
2022/09/25 06:29:08;;;;;;;42.70;38.30;;;;;;;9.04;71.02;100153.14;108972;1270;23599;-86
2022/09/25 06:32:22;;;;;;;46.20;40.60;;;;;;;9.15;71.06;100154.31;109103;1270;21973;-83
2022/09/25 06:35:01;;;;;;;45.70;41.00;;;;;;;9.30;70.97;100155.69;109189;1270;21982;-82
2022/09/25 06:37:46;;;;;;;46.20;39.40;;;;;;;9.42;70.83;100153.69;109441;1270;22114;-80
2022/09/25 06:40:25;;;;;;;46.60;41.60;;;;;;;9.67;71.41;100155.23;109268;1276;23018;-84
2022/09/25 06:43:32;;;;;;;46.30;40.60;;;;;;;9.95;70.98;100150.16;107966;1282;22022;-84
2022/09/25 06:46:03;;;;;;;45.00;40.00;;;;;;;10.28;71.31;100157.11;107932;1287;22149;-85
2022/09/25 06:48:34;;;;;;;46.10;41.20;;;;;;;10.61;70.77;100156.98;107942;1286;22371;-85
2022/09/25 06:51:34;;;;;;;43.70;39.00;;;;;;;10.82;69.61;100159.75;108453;1287;21953;-84
2022/09/25 06:54:22;;;;;;;44.80;40.20;;;;;;;10.94;68.78;100159.79;107994;1290;22960;-86
2022/09/25 06:56:53;;;;;;;44.30;39.60;;;;;;;11.06;68.57;100156.33;108397;1289;22358;-85
2022/09/25 06:59:29;;;;;;;44.90;40.00;;;;;;;11.31;68.29;100163.27;107805;1292;22057;-84
2022/09/25 07:05:06;;;;;;;43.00;38.40;;;;;;;11.95;68.06;100160.57;108720;1276;23614;-87
2022/09/25 07:07:39;;;;;;;44.50;39.70;;;;;;;12.17;66.76;100155.75;109415;1263;21989;-87
2022/09/25 07:10:10;;;;;;;43.90;39.40;;;;;;;12.34;65.71;100153.54;108895;1270;22323;-84
2022/09/25 07:12:42;;;;;;;45.90;41.00;;;;;;;12.39;65.04;100160.27;108872;1273;22026;-83
2022/09/25 07:15:16;;;;;;;42.20;37.70;;;;;;;12.52;65.28;100158.05;109107;1270;21991;-85
2022/09/25 07:17:48;;;;;;;42.90;37.70;;;;;;;12.82;65.51;100158.15;109275;1270;22314;-86
2022/09/25 07:20:26;;;;;;;41.00;37.00;;;;;;;13.19;64.98;100153.13;108754;1270;21994;-86
2022/09/25 07:23:03;;;;;;;42.00;37.80;;;;;;;13.57;64.44;100152.20;109038;1273;23717;-85
2022/09/25 07:26:11;;;;;;;41.00;36.80;;;;;;;14.07;63.73;100150.93;108717;1270;22012;-85
2022/09/25 07:28:43;;;;;;;42.00;37.90;;;;;;;14.44;62.80;100146.41;108681;1276;23052;-85
2022/09/25 07:31:21;;;;;;;42.90;38.30;;;;;;;14.84;62.12;100143.58;108363;1276;24358;-84
2022/09/25 07:33:54;;;;;;;41.50;37.30;;;;;;;15.22;61.24;100144.68;108484;1276;23648;-85
2022/09/25 07:36:28;;;;;;;42.20;37.90;;;;;;;15.55;59.91;100152.26;108567;1276;22507;-84
2022/09/25 07:39:12;;;;;;;42.70;38.20;;;;;;;15.96;59.80;100150.61;108218;1282;23068;-85
2022/09/25 07:41:57;;;;;;;39.30;35.50;;;;;;;16.37;58.12;100145.37;108175;1282;23615;-85
2022/09/25 07:44:41;;;;;;;44.30;39.50;;;;;;;16.62;56.86;100141.66;108328;1282;23029;-85
2022/09/25 07:47:19;;;;;;;41.80;37.30;;;;;;;16.79;55.49;100144.36;108441;1279;22046;-87
2022/09/25 07:50:01;;;;;;;41.60;37.50;;;;;;;16.99;55.31;100145.50;108326;1279;23740;-85
2022/09/25 07:52:48;;;;;;;42.80;37.00;;;;;;;17.38;55.73;100143.16;108333;1279;22072;-83
2022/09/25 07:55:23;;;;;;;39.50;35.60;;;;;;;17.70;54.39;100142.16;108237;1279;23823;-85
2022/09/25 07:57:56;;;;;;;39.00;35.10;;;;;;;18.03;53.63;100137.98;108340;1279;22015;-85
2022/09/25 08:00:42;;;;;;;39.10;35.10;;;;;;;18.31;53.16;100141.17;108386;1279;22299;-85
2022/09/25 08:03:16;;;;;;;38.50;34.50;;;;;;;18.66;52.38;100140.20;108326;1279;21982;-85
2022/09/25 08:05:47;;;;;;;40.70;36.70;;;;;;;18.85;50.87;100138.24;108300;1278;22643;-84
2022/09/25 08:08:22;;;;;;;38.50;34.50;;;;;;;18.96;50.04;100138.66;108341;1279;24056;-83
2022/09/25 08:11:10;;;;;;;38.00;34.40;;;;;;;18.94;49.34;100133.17;108665;1270;22166;-83
2022/09/25 08:13:45;;;;;;;40.80;36.90;;;;;;;18.83;48.86;100129.45;108775;1270;23049;-82
2022/09/25 08:16:17;;;;;;;34.20;31.00;;;;;;;18.60;48.21;100126.36;108835;1270;22080;-83
2022/09/25 08:18:52;;;;;;;29.80;27.00;;;;;;;18.37;48.88;100130.89;108800;1270;21981;-83
2022/09/25 08:21:22;;;;;;;30.30;27.30;;;;;;;18.39;49.74;100123.86;108786;1270;22043;-85
2022/09/25 08:23:55;;;;;;;31.60;28.50;;;;;;;18.54;49.22;100123.14;108893;1272;22016;-84
2022/09/25 08:26:49;;;;;;;;;;;;;;;;;;;;;
2022/09/25 08:29:28;;;;;;;27.10;24.20;;;;;;;19.01;49.44;100119.92;108601;1279;22012;-83
2022/09/25 08:35:00;;;;;;;25.40;23.00;;;;;;;19.26;46.92;100116.57;108461;1279;22859;-85
2022/09/25 08:37:44;;;;;;;28.00;24.90;;;;;;;19.28;46.77;100115.42;108349;1279;23653;-85
2022/09/25 08:40:21;;;;;;;30.40;25.50;;;;;;;19.46;47.04;100117.36;108648;1279;22770;-84
2022/09/25 08:42:55;;;;;;;28.20;25.30;;;;;;;19.74;46.82;100115.71;108345;1279;22019;-84
2022/09/25 08:49:01;;;;;;;25.50;22.90;;;;;;;19.95;45.27;100116.71;108805;1270;22031;-85
2022/09/25 08:51:51;;;;;;;25.30;22.90;;;;;;;19.93;44.69;100108.89;108966;1270;23615;-86
2022/09/25 08:54:39;;;;;;;25.90;23.20;;;;;;;19.99;45.38;100111.91;108802;1270;21988;-83
2022/09/25 08:57:45;;;;;;;25.70;23.00;;;;;;;20.18;45.07;100113.17;108896;1270;22343;-80
2022/09/25 09:00:29;;;;;;;29.80;25.00;;;;;;;20.30;44.39;100110.77;109191;1270;22011;-83
2022/09/25 09:03:04;;;;;;;31.00;24.90;;;;;;;20.34;44.54;100108.20;108720;1276;21989;-81
2022/09/25 09:05:40;;;;;;;28.40;24.30;;;;;;;20.40;44.57;100102.17;108748;1275;21982;-80
2022/09/25 09:08:28;;;;;;;26.90;24.10;;;;;;;20.43;44.79;100095.75;108692;1273;23731;-81
2022/09/25 09:11:14;;;;;;;24.60;22.00;;;;;;;20.66;45.15;100096.58;108693;1276;23600;-81
2022/09/25 09:14:06;;;;;;;24.80;22.10;;;;;;;20.81;44.43;100091.05;108650;1276;22043;-83
2022/09/25 09:17:17;;;;;;;24.10;21.80;;;;;;;20.92;42.97;100091.36;108763;1273;23708;-82
2022/09/25 09:20:27;;;;;;;22.80;19.70;;;;;;;20.58;42.06;100087.13;108416;1280;22218;-81
2022/09/25 09:23:20;;;;;;;23.10;18.30;;;;;;;20.40;42.82;100088.23;108692;1276;23243;-84
2022/09/25 09:26:26;;;;;;;22.00;16.20;;;;;;;20.53;43.39;100085.39;108792;1276;23811;-82
2022/09/25 09:29:32;;;;;;;20.00;17.70;;;;;;;20.89;43.21;100083.83;108001;1285;22075;-79
2022/09/25 09:32:28;;;;;;;23.30;18.20;;;;;;;21.11;41.93;100085.30;108033;1285;22007;-83
2022/09/25 09:35:14;;;;;;;19.70;17.70;;;;;;;21.24;42.34;100079.73;107727;1288;22014;-83
2022/09/25 09:38:09;;;;;;;18.90;16.40;;;;;;;21.46;41.23;100085.13;107746;1286;22053;-84
2022/09/25 09:41:21;;;;;;;21.50;19.20;;;;;;;21.36;40.81;100079.05;107925;1286;22320;-85
2022/09/25 09:44:31;;;;;;;21.00;18.80;;;;;;;21.39;40.64;100071.41;107645;1288;22002;-84
2022/09/25 09:47:18;;;;;;;20.00;18.00;;;;;;;21.48;41.16;100067.94;107738;1285;22070;-83
2022/09/25 09:50:25;;;;;;;20.40;18.20;;;;;;;21.81;41.35;100067.38;107911;1286;22008;-84
2022/09/25 09:53:04;;;;;;;20.30;18.10;;;;;;;22.03;40.09;100061.52;108073;1279;21998;-83
2022/09/25 09:55:44;;;;;;;15.00;13.00;;;;;;;22.21;40.10;100059.02;108244;1279;21998;-83
2022/09/25 09:58:34;;;;;;;18.10;13.20;;;;;;;22.47;39.58;100055.23;108577;1276;21994;-84
2022/09/25 10:01:04;;;;;;;14.60;13.10;;;;;;;22.67;38.76;100053.01;108462;1276;22865;-84
2022/09/25 10:04:25;;;;;;;12.90;10.60;;;;;;;22.90;38.26;100050.81;108723;1273;23622;-83
2022/09/25 10:07:11;;;;;;;11.50;8.30;;;;;;;22.91;36.48;100047.52;108666;1270;22983;-85
2022/09/25 10:09:42;;;;;;;10.70;9.00;;;;;;;23.06;36.46;100041.89;108663;1270;22007;-83
2022/09/25 10:12:35;;;;;;;10.30;9.30;;;;;;;23.26;35.73;100039.09;108698;1270;23084;-84
2022/09/25 10:15:57;;;;;;;11.50;10.10;;;;;;;23.20;34.77;100032.20;108762;1270;22007;-84
2022/09/25 10:18:39;;;;;;;11.20;8.50;;;;;;;23.10;35.39;100029.93;108456;1279;23074;-84
2022/09/25 10:21:15;;;;;;;11.50;9.10;;;;;;;23.41;35.95;100025.20;107565;1279;1011883;-83
2022/09/25 10:23:50;;;;;;;22.80;10.60;;;;;;;23.73;34.69;100021.09;108454;1279;22004;-83
2022/09/25 10:26:41;;;;;;;11.30;10.20;;;;;;;23.75;34.36;100022.59;108229;1282;23121;-83
2022/09/25 10:29:18;;;;;;;13.40;10.90;;;;;;;23.56;34.17;100019.67;108199;1282;22027;-84
2022/09/25 10:32:05;;;;;;;10.50;9.40;;;;;;;23.58;34.87;100022.14;108253;1282;22014;-84
2022/09/25 10:34:34;;;;;;;10.00;9.10;;;;;;;23.58;33.57;100023.61;108236;1282;22999;-83
2022/09/25 10:37:19;;;;;;;10.30;9.20;;;;;;;23.39;33.19;100022.23;108232;1282;23888;-83
2022/09/25 10:40:21;;;;;;;9.40;7.60;;;;;;;23.34;33.66;100013.84;108162;1282;23445;-83
2022/09/25 10:43:19;;;;;;;8.90;7.90;;;;;;;23.42;33.46;100018.73;107675;1286;23848;-84
2022/09/25 10:46:13;;;;;;;10.50;9.50;;;;;;;23.58;33.38;100018.09;107838;1284;22018;-84
2022/09/25 10:51:37;;;;;;;9.00;8.20;;;;;;;24.01;32.43;100009.27;108294;1281;22014;-84
2022/09/25 10:54:15;;;;;;;10.50;9.40;;;;;;;23.78;32.29;100007.92;107947;1282;22528;-84
2022/09/25 10:56:50;;;;;;;11.20;8.60;;;;;;;23.63;32.96;100006.92;108132;1282;22027;-84
2022/09/25 10:59:23;;;;;;;10.20;8.40;;;;;;;23.33;32.41;100009.83;107860;1282;22567;-84
2022/09/25 11:01:55;;;;;;;11.40;9.70;;;;;;;22.98;33.26;100010.92;107856;1284;23141;-83
2022/09/25 11:04:36;;;;;;;13.90;10.00;;;;;;;22.77;33.45;100013.91;108118;1281;23172;-83
2022/09/25 11:07:26;;;;;;;10.50;9.40;;;;;;;22.30;33.68;100011.54;108028;1284;22084;-82
2022/09/25 11:09:58;;;;;;;9.50;8.50;;;;;;;21.96;34.51;100005.98;108329;1276;22004;-84
2022/09/25 11:12:32;;;;;;;10.20;9.20;;;;;;;21.76;34.88;100007.42;108374;1277;22037;-82
2022/09/25 11:15:08;;;;;;;9.80;8.60;;;;;;;21.45;35.09;100008.54;108366;1279;23696;-84
2022/09/25 11:17:43;;;;;;;9.10;8.30;;;;;;;21.16;35.48;100004.16;108412;1276;22008;-83
2022/09/25 11:20:15;;;;;;;11.90;10.70;;;;;;;20.95;36.24;99998.39;108768;1270;22067;-83
2022/09/25 11:22:56;;;;;;;9.00;8.10;;;;;;;20.80;36.53;100000.44;109013;1270;21995;-84
2022/09/25 11:26:00;;;;;;;8.50;7.70;;;;;;;20.58;36.55;99997.00;108620;1270;22110;-84
2022/09/25 11:29:04;;;;;;;8.40;7.40;;;;;;;20.35;36.82;99991.84;108451;1278;21999;-82
2022/09/25 11:32:03;;;;;;;7.70;6.90;;;;;;;20.21;36.98;99990.75;108555;1277;21994;-84
2022/09/25 11:35:40;;;;;;;8.20;6.90;;;;;;;20.05;37.28;99985.52;108622;1277;23804;-83
2022/09/25 11:42:45;;;;;;;7.20;6.50;;;;;;;19.76;38.34;99974.81;106064;1305;22028;-83
2022/09/25 11:45:29;;;;;;;8.30;7.50;;;;;;;19.77;38.03;99975.60;105860;1309;22095;-81
2022/09/25 11:48:31;;;;;;;6.20;5.60;;;;;;;19.72;38.08;99976.88;105744;1308;22054;-83
2022/09/25 11:51:08;;;;;;;7.70;5.90;;;;;;;19.70;38.28;99975.15;105950;1306;22024;-82
2022/09/25 11:54:34;;;;;;;6.40;5.70;;;;;;;19.70;38.15;99973.88;106044;1306;23184;-83
2022/09/25 11:57:30;;;;;;;6.30;5.80;;;;;;;19.62;38.25;99972.80;106194;1305;23701;-85
2022/09/25 12:01:13;;;;;;;6.20;5.60;;;;;;;19.55;38.29;99973.51;106085;1305;22449;-83
2022/09/25 12:04:11;;;;;;;6.30;5.70;;;;;;;19.47;38.25;99970.28;105135;1317;23056;-82
2022/09/25 12:08:00;;;;;;;5.70;5.10;;;;;;;19.42;38.22;99970.67;105162;1317;22037;-84
2022/09/25 12:11:01;;;;;;;6.90;5.40;;;;;;;19.42;37.99;99968.75;107599;1288;544636;-84
2022/09/25 12:13:54;;;;;;;6.00;5.40;;;;;;;19.34;37.86;99961.45;109567;1265;22218;-83
2022/09/25 12:17:14;;;;;;;5.50;4.70;;;;;;;19.19;38.03;99956.45;109294;1265;22065;-80
2022/09/25 12:20:15;;;;;;;6.70;5.60;;;;;;;19.15;38.41;99954.69;109252;1265;22046;-83
2022/09/25 12:22:56;;;;;;;6.40;5.30;;;;;;;19.14;38.63;99952.14;110686;1253;21972;-83
2022/09/25 12:25:57;;;;;;;6.70;5.60;;;;;;;19.10;38.74;99948.02;110244;1249;1073955;-82
2022/09/25 12:28:54;;;;;;;5.50;4.90;;;;;;;19.09;38.73;99941.92;110942;1252;21960;-81
2022/09/25 12:31:39;;;;;;;6.10;5.50;;;;;;;19.08;38.68;99937.21;110903;1252;21969;-83
2022/09/25 12:34:40;;;;;;;6.60;6.00;;;;;;;19.08;38.35;99938.85;111009;1249;21963;-80
2022/09/25 12:37:42;;;;;;;6.70;6.00;;;;;;;18.93;38.75;99931.23;111101;1251;22749;-85
2022/09/25 12:40:35;;;;;;;6.10;5.50;;;;;;;18.91;39.35;99932.92;111079;1250;21978;-83
2022/09/25 12:43:35;;;;;;;6.10;5.40;;;;;;;18.96;39.22;99930.99;111048;1250;22074;-85
2022/09/25 12:46:28;;;;;;;7.30;4.90;;;;;;;18.88;39.27;99929.84;110937;1250;21975;-84
2022/09/25 12:49:22;;;;;;;5.80;5.00;;;;;;;18.90;39.52;99929.15;111010;1249;24298;-84
2022/09/25 12:52:04;;;;;;;6.20;5.60;;;;;;;18.95;39.54;99927.31;110983;1249;21970;-85
2022/09/25 12:54:41;;;;;;;6.20;5.60;;;;;;;19.01;39.45;99926.85;110521;1255;22464;-85
2022/09/25 12:58:08;;;;;;;8.50;5.80;;;;;;;19.05;39.48;99925.89;110485;1256;22007;-84
2022/09/25 13:00:45;;;;;;;6.70;5.90;;;;;;;19.01;39.43;99925.66;109040;1270;21948;-85
2022/09/25 13:03:37;;;;;;;6.00;4.90;;;;;;;18.94;39.49;99921.97;108704;1276;23122;-84
2022/09/25 13:06:29;;;;;;;6.80;6.20;;;;;;;18.90;39.48;99922.95;108621;1276;23147;-79
2022/09/25 13:09:16;;;;;;;;;;;;;;;18.88;39.58;99926.29;108644;1276;21993;-80
2022/09/25 13:12:08;;;;;;;8.80;6.40;;;;;;;18.75;39.92;99922.01;108622;1276;22797;-82
2022/09/25 13:14:41;;;;;;;5.90;5.20;;;;;;;18.73;40.07;99918.45;108920;1270;22315;-83
2022/09/25 13:17:13;;;;;;;7.30;4.70;;;;;;;18.76;40.12;99912.42;109051;1270;23549;-81
2022/09/25 13:20:27;;;;;;;5.90;5.20;;;;;;;18.80;39.95;99914.10;108710;1272;22109;-83
2022/09/25 13:23:03;;;;;;;9.40;8.10;;;;;;;18.77;39.78;99913.42;108876;1273;22007;-84
2022/09/25 13:25:47;;;;;;;6.20;5.60;;;;;;;18.77;39.84;99911.81;108763;1273;22994;-81
2022/09/25 13:28:33;;;;;;;7.70;4.60;;;;;;;18.77;40.06;99912.16;108622;1276;22452;-81